sensor_id;sensor_type;location;lat;lon;timestamp;P1;durP1;ratioP1;P2;durP2;ratioP2
41921;SDS011;27609;51.002;5.354;2023-08-08T00:00:19;5.18;;;3.22;;
41921;SDS011;27609;51.002;5.354;2023-08-08T00:02:44;7.60;;;3.28;;
41921;SDS011;27609;51.002;5.354;2023-08-08T00:05:10;6.78;;;3.33;;
41921;SDS011;27609;51.002;5.354;2023-08-08T00:07:36;4.88;;;3.42;;
41921;SDS011;27609;51.002;5.354;2023-08-08T00:10:01;4.93;;;3.88;;
41921;SDS011;27609;51.002;5.354;2023-08-08T00:12:28;5.97;;;3.25;;
41921;SDS011;27609;51.002;5.354;2023-08-08T00:14:54;8.13;;;3.30;;
41921;SDS011;27609;51.002;5.354;2023-08-08T00:17:19;4.07;;;3.17;;
41921;SDS011;27609;51.002;5.354;2023-08-08T00:19:45;5.95;;;3.03;;
41921;SDS011;27609;51.002;5.354;2023-08-08T00:22:11;4.57;;;3.17;;
41921;SDS011;27609;51.002;5.354;2023-08-08T00:24:36;7.35;;;3.65;;
41921;SDS011;27609;51.002;5.354;2023-08-08T00:27:02;6.25;;;3.38;;
41921;SDS011;27609;51.002;5.354;2023-08-08T00:29:28;6.53;;;2.85;;
41921;SDS011;27609;51.002;5.354;2023-08-08T00:31:54;5.35;;;3.25;;
41921;SDS011;27609;51.002;5.354;2023-08-08T00:34:20;3.25;;;2.92;;
41921;SDS011;27609;51.002;5.354;2023-08-08T00:36:46;4.03;;;3.17;;
41921;SDS011;27609;51.002;5.354;2023-08-08T00:39:11;4.90;;;3.45;;
41921;SDS011;27609;51.002;5.354;2023-08-08T00:41:37;8.13;;;3.25;;
41921;SDS011;27609;51.002;5.354;2023-08-08T00:44:03;8.43;;;3.55;;
41921;SDS011;27609;51.002;5.354;2023-08-08T00:46:28;4.57;;;2.85;;
41921;SDS011;27609;51.002;5.354;2023-08-08T00:48:54;7.97;;;3.13;;
41921;SDS011;27609;51.002;5.354;2023-08-08T00:51:20;4.15;;;2.85;;
41921;SDS011;27609;51.002;5.354;2023-08-08T00:53:47;6.63;;;3.88;;
41921;SDS011;27609;51.002;5.354;2023-08-08T00:56:13;6.93;;;3.33;;
41921;SDS011;27609;51.002;5.354;2023-08-08T00:58:39;4.55;;;2.72;;
41921;SDS011;27609;51.002;5.354;2023-08-08T01:01:05;6.93;;;3.10;;
41921;SDS011;27609;51.002;5.354;2023-08-08T01:03:31;7.68;;;3.13;;
41921;SDS011;27609;51.002;5.354;2023-08-08T01:06:06;8.68;;;3.50;;
41921;SDS011;27609;51.002;5.354;2023-08-08T01:08:52;7.07;;;2.80;;
41921;SDS011;27609;51.002;5.354;2023-08-08T01:11:38;5.32;;;2.95;;
41921;SDS011;27609;51.002;5.354;2023-08-08T01:14:05;6.78;;;3.03;;
41921;SDS011;27609;51.002;5.354;2023-08-08T01:16:33;5.93;;;3.03;;
41921;SDS011;27609;51.002;5.354;2023-08-08T01:18:59;5.75;;;3.05;;
41921;SDS011;27609;51.002;5.354;2023-08-08T01:21:27;8.45;;;2.85;;
41921;SDS011;27609;51.002;5.354;2023-08-08T01:26:48;4.28;;;2.63;;
41921;SDS011;27609;51.002;5.354;2023-08-08T01:29:14;10.48;;;3.22;;
41921;SDS011;27609;51.002;5.354;2023-08-08T01:31:40;6.50;;;2.97;;
41921;SDS011;27609;51.002;5.354;2023-08-08T01:34:06;6.43;;;2.63;;
41921;SDS011;27609;51.002;5.354;2023-08-08T01:37:14;4.30;;;2.53;;
41921;SDS011;27609;51.002;5.354;2023-08-08T01:39:24;3.63;;;2.50;;
41921;SDS011;27609;51.002;5.354;2023-08-08T01:41:52;5.50;;;2.53;;
41921;SDS011;27609;51.002;5.354;2023-08-08T01:44:19;6.05;;;2.75;;
41921;SDS011;27609;51.002;5.354;2023-08-08T01:46:47;7.47;;;2.70;;
41921;SDS011;27609;51.002;5.354;2023-08-08T01:49:12;6.50;;;3.00;;
41921;SDS011;27609;51.002;5.354;2023-08-08T01:51:38;5.80;;;2.78;;
41921;SDS011;27609;51.002;5.354;2023-08-08T01:54:04;8.52;;;3.15;;
41921;SDS011;27609;51.002;5.354;2023-08-08T01:56:29;7.88;;;2.60;;
41921;SDS011;27609;51.002;5.354;2023-08-08T01:58:55;6.20;;;2.80;;
41921;SDS011;27609;51.002;5.354;2023-08-08T02:01:21;5.75;;;3.20;;
41921;SDS011;27609;51.002;5.354;2023-08-08T02:03:47;7.32;;;2.65;;
41921;SDS011;27609;51.002;5.354;2023-08-08T02:06:13;6.63;;;3.20;;
41921;SDS011;27609;51.002;5.354;2023-08-08T02:08:38;5.80;;;3.33;;
41921;SDS011;27609;51.002;5.354;2023-08-08T02:11:04;6.78;;;3.22;;
41921;SDS011;27609;51.002;5.354;2023-08-08T02:13:30;6.43;;;3.17;;
41921;SDS011;27609;51.002;5.354;2023-08-08T02:15:55;7.40;;;3.03;;
41921;SDS011;27609;51.002;5.354;2023-08-08T02:18:21;6.68;;;3.30;;
41921;SDS011;27609;51.002;5.354;2023-08-08T02:20:47;4.75;;;2.95;;
41921;SDS011;27609;51.002;5.354;2023-08-08T02:23:12;6.80;;;3.33;;
41921;SDS011;27609;51.002;5.354;2023-08-08T02:25:38;6.07;;;3.45;;
41921;SDS011;27609;51.002;5.354;2023-08-08T02:28:04;8.30;;;3.40;;
41921;SDS011;27609;51.002;5.354;2023-08-08T02:30:30;8.88;;;2.95;;
41921;SDS011;27609;51.002;5.354;2023-08-08T02:32:55;8.55;;;3.13;;
41921;SDS011;27609;51.002;5.354;2023-08-08T02:35:21;11.15;;;3.45;;
41921;SDS011;27609;51.002;5.354;2023-08-08T02:37:47;8.32;;;2.92;;
41921;SDS011;27609;51.002;5.354;2023-08-08T02:40:12;8.55;;;3.70;;
41921;SDS011;27609;51.002;5.354;2023-08-08T02:42:38;10.20;;;4.05;;
41921;SDS011;27609;51.002;5.354;2023-08-08T02:45:04;11.50;;;3.55;;
41921;SDS011;27609;51.002;5.354;2023-08-08T02:47:30;9.88;;;3.67;;
41921;SDS011;27609;51.002;5.354;2023-08-08T02:49:56;9.13;;;3.80;;
41921;SDS011;27609;51.002;5.354;2023-08-08T02:52:21;10.65;;;4.70;;
41921;SDS011;27609;51.002;5.354;2023-08-08T02:54:47;10.40;;;4.15;;
41921;SDS011;27609;51.002;5.354;2023-08-08T02:57:13;6.82;;;4.10;;
41921;SDS011;27609;51.002;5.354;2023-08-08T02:59:38;12.02;;;3.95;;
41921;SDS011;27609;51.002;5.354;2023-08-08T03:02:04;6.55;;;4.25;;
41921;SDS011;27609;51.002;5.354;2023-08-08T03:04:30;8.65;;;4.05;;
41921;SDS011;27609;51.002;5.354;2023-08-08T03:06:55;8.95;;;4.20;;
41921;SDS011;27609;51.002;5.354;2023-08-08T03:09:21;20.55;;;4.88;;
41921;SDS011;27609;51.002;5.354;2023-08-08T03:11:47;6.38;;;4.03;;
41921;SDS011;27609;51.002;5.354;2023-08-08T03:14:13;14.15;;;4.72;;
41921;SDS011;27609;51.002;5.354;2023-08-08T03:16:38;10.55;;;4.25;;
41921;SDS011;27609;51.002;5.354;2023-08-08T03:19:04;10.43;;;4.25;;
41921;SDS011;27609;51.002;5.354;2023-08-08T03:21:30;13.57;;;4.32;;
41921;SDS011;27609;51.002;5.354;2023-08-08T03:23:56;12.80;;;4.63;;
41921;SDS011;27609;51.002;5.354;2023-08-08T03:26:22;9.65;;;4.78;;
41921;SDS011;27609;51.002;5.354;2023-08-08T03:28:48;11.45;;;4.35;;
41921;SDS011;27609;51.002;5.354;2023-08-08T03:31:16;13.95;;;4.63;;
41921;SDS011;27609;51.002;5.354;2023-08-08T03:33:42;12.93;;;4.70;;
41921;SDS011;27609;51.002;5.354;2023-08-08T03:36:08;10.85;;;4.75;;
41921;SDS011;27609;51.002;5.354;2023-08-08T03:38:34;9.52;;;4.80;;
41921;SDS011;27609;51.002;5.354;2023-08-08T03:41:00;12.95;;;5.80;;
41921;SDS011;27609;51.002;5.354;2023-08-08T03:43:26;11.55;;;5.05;;
41921;SDS011;27609;51.002;5.354;2023-08-08T03:45:52;12.55;;;5.40;;
41921;SDS011;27609;51.002;5.354;2023-08-08T03:48:17;13.15;;;5.00;;
41921;SDS011;27609;51.002;5.354;2023-08-08T03:50:43;13.05;;;4.40;;
41921;SDS011;27609;51.002;5.354;2023-08-08T03:53:09;12.30;;;5.05;;
41921;SDS011;27609;51.002;5.354;2023-08-08T03:55:34;14.32;;;5.03;;
41921;SDS011;27609;51.002;5.354;2023-08-08T03:58:00;17.00;;;4.40;;
41921;SDS011;27609;51.002;5.354;2023-08-08T04:00:25;14.13;;;4.55;;
41921;SDS011;27609;51.002;5.354;2023-08-08T04:02:51;18.70;;;5.78;;
41921;SDS011;27609;51.002;5.354;2023-08-08T04:05:17;17.48;;;5.47;;
41921;SDS011;27609;51.002;5.354;2023-08-08T04:07:42;18.73;;;4.63;;
41921;SDS011;27609;51.002;5.354;2023-08-08T04:10:08;14.02;;;6.00;;
41921;SDS011;27609;51.002;5.354;2023-08-08T04:12:34;16.48;;;6.32;;
41921;SDS011;27609;51.002;5.354;2023-08-08T04:15:00;12.07;;;4.95;;
41921;SDS011;27609;51.002;5.354;2023-08-08T04:17:26;11.30;;;4.90;;
41921;SDS011;27609;51.002;5.354;2023-08-08T04:19:51;9.45;;;5.53;;
41921;SDS011;27609;51.002;5.354;2023-08-08T04:22:17;16.15;;;5.90;;
41921;SDS011;27609;51.002;5.354;2023-08-08T04:24:43;15.52;;;4.90;;
41921;SDS011;27609;51.002;5.354;2023-08-08T04:27:08;16.58;;;6.13;;
41921;SDS011;27609;51.002;5.354;2023-08-08T04:29:35;11.60;;;5.75;;
41921;SDS011;27609;51.002;5.354;2023-08-08T04:32:01;18.42;;;5.53;;
41921;SDS011;27609;51.002;5.354;2023-08-08T04:34:27;14.82;;;5.25;;
41921;SDS011;27609;51.002;5.354;2023-08-08T04:36:52;19.08;;;6.22;;
41921;SDS011;27609;51.002;5.354;2023-08-08T04:39:18;11.30;;;5.28;;
41921;SDS011;27609;51.002;5.354;2023-08-08T04:41:44;11.95;;;4.90;;
41921;SDS011;27609;51.002;5.354;2023-08-08T04:44:09;13.88;;;5.93;;
41921;SDS011;27609;51.002;5.354;2023-08-08T04:46:35;14.63;;;5.18;;
41921;SDS011;27609;51.002;5.354;2023-08-08T04:49:00;10.40;;;5.10;;
41921;SDS011;27609;51.002;5.354;2023-08-08T04:51:26;14.57;;;4.82;;
41921;SDS011;27609;51.002;5.354;2023-08-08T04:53:52;16.00;;;5.32;;
41921;SDS011;27609;51.002;5.354;2023-08-08T04:56:18;16.40;;;5.05;;
41921;SDS011;27609;51.002;5.354;2023-08-08T04:58:43;28.58;;;5.22;;
41921;SDS011;27609;51.002;5.354;2023-08-08T05:01:09;14.02;;;5.18;;
41921;SDS011;27609;51.002;5.354;2023-08-08T05:03:39;12.93;;;5.70;;
41921;SDS011;27609;51.002;5.354;2023-08-08T05:06:04;15.07;;;4.38;;
41921;SDS011;27609;51.002;5.354;2023-08-08T05:08:30;15.95;;;4.85;;
41921;SDS011;27609;51.002;5.354;2023-08-08T05:10:56;13.75;;;5.53;;
41921;SDS011;27609;51.002;5.354;2023-08-08T05:13:21;17.70;;;5.20;;
41921;SDS011;27609;51.002;5.354;2023-08-08T05:15:47;22.35;;;5.30;;
41921;SDS011;27609;51.002;5.354;2023-08-08T05:18:13;20.30;;;5.43;;
41921;SDS011;27609;51.002;5.354;2023-08-08T05:20:38;14.77;;;5.57;;
41921;SDS011;27609;51.002;5.354;2023-08-08T05:23:04;13.75;;;6.00;;
41921;SDS011;27609;51.002;5.354;2023-08-08T05:25:30;19.85;;;5.80;;
41921;SDS011;27609;51.002;5.354;2023-08-08T05:27:55;14.23;;;5.35;;
41921;SDS011;27609;51.002;5.354;2023-08-08T05:30:21;13.70;;;5.35;;
41921;SDS011;27609;51.002;5.354;2023-08-08T05:32:47;13.02;;;5.35;;
41921;SDS011;27609;51.002;5.354;2023-08-08T05:35:13;9.18;;;4.90;;
41921;SDS011;27609;51.002;5.354;2023-08-08T05:37:38;14.43;;;5.03;;
41921;SDS011;27609;51.002;5.354;2023-08-08T05:40:04;14.40;;;5.15;;
41921;SDS011;27609;51.002;5.354;2023-08-08T05:42:31;15.60;;;5.35;;
41921;SDS011;27609;51.002;5.354;2023-08-08T05:44:57;17.73;;;5.75;;
41921;SDS011;27609;51.002;5.354;2023-08-08T05:47:23;14.13;;;5.20;;
41921;SDS011;27609;51.002;5.354;2023-08-08T05:49:49;17.23;;;5.38;;
41921;SDS011;27609;51.002;5.354;2023-08-08T05:52:15;16.50;;;5.13;;
41921;SDS011;27609;51.002;5.354;2023-08-08T05:54:40;13.68;;;5.22;;
41921;SDS011;27609;51.002;5.354;2023-08-08T05:57:06;12.00;;;5.10;;
41921;SDS011;27609;51.002;5.354;2023-08-08T05:59:32;13.95;;;4.68;;
41921;SDS011;27609;51.002;5.354;2023-08-08T06:01:57;11.95;;;4.82;;
41921;SDS011;27609;51.002;5.354;2023-08-08T06:04:24;13.75;;;4.18;;
41921;SDS011;27609;51.002;5.354;2023-08-08T06:06:50;12.13;;;4.63;;
41921;SDS011;27609;51.002;5.354;2023-08-08T06:09:15;12.23;;;4.55;;
41921;SDS011;27609;51.002;5.354;2023-08-08T06:11:42;13.27;;;4.00;;
41921;SDS011;27609;51.002;5.354;2023-08-08T06:14:08;12.55;;;3.92;;
41921;SDS011;27609;51.002;5.354;2023-08-08T06:16:34;15.23;;;3.92;;
41921;SDS011;27609;51.002;5.354;2023-08-08T06:19:00;9.20;;;3.65;;
41921;SDS011;27609;51.002;5.354;2023-08-08T06:21:25;15.77;;;4.20;;
41921;SDS011;27609;51.002;5.354;2023-08-08T06:23:51;12.85;;;3.63;;
41921;SDS011;27609;51.002;5.354;2023-08-08T06:26:20;12.80;;;3.38;;
41921;SDS011;27609;51.002;5.354;2023-08-08T06:28:46;9.05;;;3.35;;
41921;SDS011;27609;51.002;5.354;2023-08-08T06:31:12;11.50;;;3.72;;
41921;SDS011;27609;51.002;5.354;2023-08-08T06:33:39;11.85;;;3.92;;
41921;SDS011;27609;51.002;5.354;2023-08-08T06:36:05;10.45;;;3.75;;
41921;SDS011;27609;51.002;5.354;2023-08-08T06:38:31;11.65;;;3.45;;
41921;SDS011;27609;51.002;5.354;2023-08-08T06:40:59;7.75;;;3.45;;
41921;SDS011;27609;51.002;5.354;2023-08-08T06:43:28;8.48;;;2.92;;
41921;SDS011;27609;51.002;5.354;2023-08-08T06:45:53;9.27;;;3.10;;
41921;SDS011;27609;51.002;5.354;2023-08-08T06:48:20;10.70;;;3.70;;
41921;SDS011;27609;51.002;5.354;2023-08-08T06:50:46;16.27;;;3.83;;
41921;SDS011;27609;51.002;5.354;2023-08-08T06:53:11;13.45;;;3.67;;
41921;SDS011;27609;51.002;5.354;2023-08-08T06:55:37;11.90;;;3.55;;
41921;SDS011;27609;51.002;5.354;2023-08-08T06:58:03;10.85;;;3.40;;
41921;SDS011;27609;51.002;5.354;2023-08-08T07:00:29;7.03;;;3.13;;
41921;SDS011;27609;51.002;5.354;2023-08-08T07:02:54;11.43;;;3.13;;
41921;SDS011;27609;51.002;5.354;2023-08-08T07:05:20;7.22;;;3.13;;
41921;SDS011;27609;51.002;5.354;2023-08-08T07:07:48;6.30;;;2.83;;
41921;SDS011;27609;51.002;5.354;2023-08-08T07:10:17;11.73;;;3.07;;
41921;SDS011;27609;51.002;5.354;2023-08-08T07:12:43;12.75;;;2.85;;
41921;SDS011;27609;51.002;5.354;2023-08-08T07:15:09;9.32;;;2.92;;
41921;SDS011;27609;51.002;5.354;2023-08-08T07:17:35;7.80;;;3.08;;
41921;SDS011;27609;51.002;5.354;2023-08-08T07:20:01;11.05;;;3.15;;
41921;SDS011;27609;51.002;5.354;2023-08-08T07:22:27;10.25;;;2.65;;
41921;SDS011;27609;51.002;5.354;2023-08-08T07:24:53;8.45;;;2.58;;
41921;SDS011;27609;51.002;5.354;2023-08-08T07:27:21;10.32;;;2.70;;
41921;SDS011;27609;51.002;5.354;2023-08-08T07:29:47;11.05;;;2.35;;
41921;SDS011;27609;51.002;5.354;2023-08-08T07:32:12;12.15;;;2.95;;
41921;SDS011;27609;51.002;5.354;2023-08-08T07:34:38;9.55;;;2.45;;
41921;SDS011;27609;51.002;5.354;2023-08-08T07:37:03;8.18;;;2.80;;
41921;SDS011;27609;51.002;5.354;2023-08-08T07:39:30;8.40;;;3.17;;
41921;SDS011;27609;51.002;5.354;2023-08-08T07:41:56;10.13;;;2.92;;
41921;SDS011;27609;51.002;5.354;2023-08-08T07:44:22;9.13;;;3.22;;
41921;SDS011;27609;51.002;5.354;2023-08-08T07:46:48;16.48;;;3.17;;
41921;SDS011;27609;51.002;5.354;2023-08-08T07:49:14;10.13;;;2.88;;
41921;SDS011;27609;51.002;5.354;2023-08-08T07:51:40;10.60;;;2.90;;
41921;SDS011;27609;51.002;5.354;2023-08-08T07:54:05;10.07;;;3.28;;
41921;SDS011;27609;51.002;5.354;2023-08-08T07:56:33;8.93;;;3.13;;
41921;SDS011;27609;51.002;5.354;2023-08-08T07:59:00;11.05;;;2.78;;
41921;SDS011;27609;51.002;5.354;2023-08-08T08:01:26;11.48;;;3.45;;
41921;SDS011;27609;51.002;5.354;2023-08-08T08:03:52;13.07;;;2.97;;
41921;SDS011;27609;51.002;5.354;2023-08-08T08:06:18;8.55;;;2.63;;
41921;SDS011;27609;51.002;5.354;2023-08-08T08:08:44;6.97;;;2.88;;
41921;SDS011;27609;51.002;5.354;2023-08-08T08:11:09;6.60;;;2.63;;
41921;SDS011;27609;51.002;5.354;2023-08-08T08:13:36;12.63;;;3.58;;
41921;SDS011;27609;51.002;5.354;2023-08-08T08:16:02;9.30;;;2.80;;
41921;SDS011;27609;51.002;5.354;2023-08-08T08:18:27;9.50;;;2.95;;
41921;SDS011;27609;51.002;5.354;2023-08-08T08:20:53;10.55;;;2.97;;
41921;SDS011;27609;51.002;5.354;2023-08-08T08:23:20;7.85;;;2.90;;
41921;SDS011;27609;51.002;5.354;2023-08-08T08:25:45;12.57;;;3.00;;
41921;SDS011;27609;51.002;5.354;2023-08-08T08:28:11;7.03;;;2.60;;
41921;SDS011;27609;51.002;5.354;2023-08-08T08:30:37;6.82;;;2.80;;
41921;SDS011;27609;51.002;5.354;2023-08-08T08:33:03;12.13;;;2.80;;
41921;SDS011;27609;51.002;5.354;2023-08-08T08:35:32;8.45;;;2.75;;
41921;SDS011;27609;51.002;5.354;2023-08-08T08:37:58;10.45;;;4.05;;
41921;SDS011;27609;51.002;5.354;2023-08-08T08:40:24;10.43;;;2.65;;
41921;SDS011;27609;51.002;5.354;2023-08-08T08:42:49;5.05;;;2.40;;
41921;SDS011;27609;51.002;5.354;2023-08-08T08:45:16;8.18;;;2.90;;
41921;SDS011;27609;51.002;5.354;2023-08-08T08:47:44;7.50;;;2.70;;
41921;SDS011;27609;51.002;5.354;2023-08-08T08:50:13;6.50;;;2.22;;
41921;SDS011;27609;51.002;5.354;2023-08-08T08:52:40;8.75;;;2.60;;
41921;SDS011;27609;51.002;5.354;2023-08-08T08:55:07;12.65;;;2.60;;
41921;SDS011;27609;51.002;5.354;2023-08-08T08:57:34;8.18;;;2.72;;
41921;SDS011;27609;51.002;5.354;2023-08-08T09:00:00;9.93;;;2.20;;
41921;SDS011;27609;51.002;5.354;2023-08-08T09:02:26;9.40;;;2.05;;
41921;SDS011;27609;51.002;5.354;2023-08-08T09:04:52;10.60;;;2.67;;
41921;SDS011;27609;51.002;5.354;2023-08-08T09:07:19;10.65;;;3.10;;
41921;SDS011;27609;51.002;5.354;2023-08-08T09:09:47;5.68;;;2.20;;
41921;SDS011;27609;51.002;5.354;2023-08-08T09:12:13;7.68;;;2.45;;
41921;SDS011;27609;51.002;5.354;2023-08-08T09:14:41;9.88;;;2.42;;
41921;SDS011;27609;51.002;5.354;2023-08-08T09:17:13;7.72;;;2.38;;
41921;SDS011;27609;51.002;5.354;2023-08-08T09:19:42;6.43;;;2.55;;
41921;SDS011;27609;51.002;5.354;2023-08-08T09:22:09;8.73;;;2.47;;
41921;SDS011;27609;51.002;5.354;2023-08-08T09:24:38;8.05;;;2.20;;
41921;SDS011;27609;51.002;5.354;2023-08-08T09:29:32;7.95;;;2.30;;
41921;SDS011;27609;51.002;5.354;2023-08-08T09:31:58;9.95;;;2.85;;
41921;SDS011;27609;51.002;5.354;2023-08-08T09:34:24;6.90;;;3.03;;
41921;SDS011;27609;51.002;5.354;2023-08-08T09:36:51;7.32;;;3.55;;
41921;SDS011;27609;51.002;5.354;2023-08-08T09:39:18;6.00;;;2.83;;
41921;SDS011;27609;51.002;5.354;2023-08-08T09:41:45;3.67;;;2.70;;
41921;SDS011;27609;51.002;5.354;2023-08-08T09:44:11;13.30;;;2.63;;
41921;SDS011;27609;51.002;5.354;2023-08-08T09:46:40;10.23;;;2.78;;
41921;SDS011;27609;51.002;5.354;2023-08-08T09:49:06;3.85;;;2.42;;
41921;SDS011;27609;51.002;5.354;2023-08-08T09:51:36;4.13;;;2.22;;
41921;SDS011;27609;51.002;5.354;2023-08-08T09:54:02;11.55;;;2.83;;
41921;SDS011;27609;51.002;5.354;2023-08-08T09:56:32;6.55;;;2.53;;
41921;SDS011;27609;51.002;5.354;2023-08-08T09:58:58;7.43;;;2.92;;
41921;SDS011;27609;51.002;5.354;2023-08-08T10:01:25;8.25;;;2.45;;
41921;SDS011;27609;51.002;5.354;2023-08-08T10:03:52;5.78;;;2.35;;
41921;SDS011;27609;51.002;5.354;2023-08-08T10:06:18;8.63;;;2.40;;
41921;SDS011;27609;51.002;5.354;2023-08-08T10:08:44;10.52;;;2.80;;
41921;SDS011;27609;51.002;5.354;2023-08-08T10:11:10;5.60;;;2.55;;
41921;SDS011;27609;51.002;5.354;2023-08-08T10:13:37;8.40;;;2.40;;
41921;SDS011;27609;51.002;5.354;2023-08-08T10:16:11;6.68;;;2.78;;
41921;SDS011;27609;51.002;5.354;2023-08-08T10:18:37;8.10;;;2.38;;
41921;SDS011;27609;51.002;5.354;2023-08-08T10:21:06;5.55;;;2.28;;
41921;SDS011;27609;51.002;5.354;2023-08-08T10:23:38;7.00;;;3.13;;
41921;SDS011;27609;51.002;5.354;2023-08-08T10:26:04;6.17;;;2.23;;
41921;SDS011;27609;51.002;5.354;2023-08-08T10:28:42;4.57;;;2.30;;
41921;SDS011;27609;51.002;5.354;2023-08-08T10:31:19;9.20;;;2.75;;
41921;SDS011;27609;51.002;5.354;2023-08-08T10:33:45;9.43;;;2.90;;
41921;SDS011;27609;51.002;5.354;2023-08-08T10:36:11;9.35;;;2.63;;
41921;SDS011;27609;51.002;5.354;2023-08-08T10:41:12;5.95;;;1.95;;
41921;SDS011;27609;51.002;5.354;2023-08-08T10:43:46;6.53;;;2.17;;
41921;SDS011;27609;51.002;5.354;2023-08-08T10:48:51;11.18;;;2.05;;
41921;SDS011;27609;51.002;5.354;2023-08-08T10:51:17;6.13;;;2.35;;
41921;SDS011;27609;51.002;5.354;2023-08-08T10:53:44;5.00;;;1.90;;
41921;SDS011;27609;51.002;5.354;2023-08-08T10:56:12;4.35;;;1.70;;
41921;SDS011;27609;51.002;5.354;2023-08-08T10:58:39;7.70;;;2.20;;
41921;SDS011;27609;51.002;5.354;2023-08-08T11:01:06;8.63;;;2.53;;
41921;SDS011;27609;51.002;5.354;2023-08-08T11:03:36;6.63;;;1.95;;
41921;SDS011;27609;51.002;5.354;2023-08-08T11:06:04;5.75;;;2.33;;
41921;SDS011;27609;51.002;5.354;2023-08-08T11:08:35;6.05;;;2.08;;
41921;SDS011;27609;51.002;5.354;2023-08-08T11:11:03;6.30;;;2.03;;
41921;SDS011;27609;51.002;5.354;2023-08-08T11:13:29;7.40;;;2.30;;
41921;SDS011;27609;51.002;5.354;2023-08-08T11:15:55;3.03;;;1.92;;
41921;SDS011;27609;51.002;5.354;2023-08-08T11:18:21;6.95;;;2.30;;
41921;SDS011;27609;51.002;5.354;2023-08-08T11:20:47;5.32;;;2.38;;
41921;SDS011;27609;51.002;5.354;2023-08-08T11:23:14;5.63;;;1.95;;
41921;SDS011;27609;51.002;5.354;2023-08-08T11:25:41;5.45;;;2.15;;
41921;SDS011;27609;51.002;5.354;2023-08-08T11:28:08;8.45;;;2.28;;
41921;SDS011;27609;51.002;5.354;2023-08-08T11:30:36;8.77;;;1.90;;
41921;SDS011;27609;51.002;5.354;2023-08-08T11:33:02;5.68;;;1.83;;
41921;SDS011;27609;51.002;5.354;2023-08-08T11:35:28;4.72;;;2.00;;
41921;SDS011;27609;51.002;5.354;2023-08-08T11:37:55;4.80;;;2.03;;
41921;SDS011;27609;51.002;5.354;2023-08-08T11:40:23;7.80;;;2.42;;
41921;SDS011;27609;51.002;5.354;2023-08-08T11:42:50;5.20;;;2.00;;
41921;SDS011;27609;51.002;5.354;2023-08-08T11:45:17;3.88;;;2.05;;
41921;SDS011;27609;51.002;5.354;2023-08-08T11:47:43;5.40;;;2.00;;
41921;SDS011;27609;51.002;5.354;2023-08-08T11:50:10;11.45;;;2.03;;
41921;SDS011;27609;51.002;5.354;2023-08-08T11:52:39;4.22;;;1.73;;
41921;SDS011;27609;51.002;5.354;2023-08-08T11:55:06;7.70;;;2.72;;
41921;SDS011;27609;51.002;5.354;2023-08-08T11:57:35;3.38;;;1.80;;
41921;SDS011;27609;51.002;5.354;2023-08-08T12:00:02;4.82;;;1.98;;
41921;SDS011;27609;51.002;5.354;2023-08-08T12:02:32;3.88;;;1.92;;
41921;SDS011;27609;51.002;5.354;2023-08-08T12:05:06;5.93;;;2.10;;
41921;SDS011;27609;51.002;5.354;2023-08-08T12:07:33;4.82;;;1.90;;
41921;SDS011;27609;51.002;5.354;2023-08-08T12:09:59;4.55;;;1.88;;
41921;SDS011;27609;51.002;5.354;2023-08-08T12:12:26;4.65;;;1.95;;
41921;SDS011;27609;51.002;5.354;2023-08-08T12:14:53;5.60;;;1.92;;
41921;SDS011;27609;51.002;5.354;2023-08-08T12:17:20;3.78;;;1.48;;
41921;SDS011;27609;51.002;5.354;2023-08-08T12:19:47;7.57;;;1.70;;
41921;SDS011;27609;51.002;5.354;2023-08-08T12:22:13;6.00;;;1.60;;
41921;SDS011;27609;51.002;5.354;2023-08-08T12:24:39;3.63;;;1.67;;
41921;SDS011;27609;51.002;5.354;2023-08-08T12:27:05;2.92;;;1.35;;
41921;SDS011;27609;51.002;5.354;2023-08-08T12:29:31;6.43;;;1.65;;
41921;SDS011;27609;51.002;5.354;2023-08-08T12:31:56;4.60;;;1.38;;
41921;SDS011;27609;51.002;5.354;2023-08-08T12:34:22;5.68;;;1.55;;
41921;SDS011;27609;51.002;5.354;2023-08-08T12:36:48;2.97;;;1.48;;
41921;SDS011;27609;51.002;5.354;2023-08-08T12:39:13;3.65;;;1.70;;
41921;SDS011;27609;51.002;5.354;2023-08-08T12:41:40;5.50;;;1.50;;
41921;SDS011;27609;51.002;5.354;2023-08-08T12:44:05;9.57;;;2.10;;
41921;SDS011;27609;51.002;5.354;2023-08-08T12:46:33;6.20;;;1.60;;
41921;SDS011;27609;51.002;5.354;2023-08-08T12:48:58;3.80;;;1.48;;
41921;SDS011;27609;51.002;5.354;2023-08-08T12:51:24;4.28;;;1.75;;
41921;SDS011;27609;51.002;5.354;2023-08-08T12:53:50;3.47;;;1.70;;
41921;SDS011;27609;51.002;5.354;2023-08-08T12:56:16;1.67;;;1.30;;
41921;SDS011;27609;51.002;5.354;2023-08-08T12:58:42;6.70;;;1.40;;
41921;SDS011;27609;51.002;5.354;2023-08-08T13:01:08;8.13;;;1.60;;
41921;SDS011;27609;51.002;5.354;2023-08-08T13:03:33;4.93;;;1.13;;
41921;SDS011;27609;51.002;5.354;2023-08-08T13:05:59;5.47;;;1.63;;
41921;SDS011;27609;51.002;5.354;2023-08-08T13:08:25;6.13;;;1.45;;
41921;SDS011;27609;51.002;5.354;2023-08-08T13:10:51;7.60;;;1.65;;
41921;SDS011;27609;51.002;5.354;2023-08-08T13:13:16;2.15;;;1.38;;
41921;SDS011;27609;51.002;5.354;2023-08-08T13:15:42;3.92;;;1.20;;
41921;SDS011;27609;51.002;5.354;2023-08-08T13:18:08;2.45;;;1.30;;
41921;SDS011;27609;51.002;5.354;2023-08-08T13:20:34;3.60;;;1.35;;
41921;SDS011;27609;51.002;5.354;2023-08-08T13:23:00;3.88;;;1.25;;
41921;SDS011;27609;51.002;5.354;2023-08-08T13:25:25;3.67;;;1.77;;
41921;SDS011;27609;51.002;5.354;2023-08-08T13:27:51;2.95;;;1.30;;
41921;SDS011;27609;51.002;5.354;2023-08-08T13:30:16;2.65;;;1.10;;
41921;SDS011;27609;51.002;5.354;2023-08-08T13:32:42;7.40;;;1.48;;
41921;SDS011;27609;51.002;5.354;2023-08-08T13:35:08;3.67;;;1.40;;
41921;SDS011;27609;51.002;5.354;2023-08-08T13:37:34;3.20;;;1.65;;
41921;SDS011;27609;51.002;5.354;2023-08-08T13:39:59;2.53;;;1.52;;
41921;SDS011;27609;51.002;5.354;2023-08-08T13:42:25;4.07;;;1.10;;
41921;SDS011;27609;51.002;5.354;2023-08-08T13:44:51;2.20;;;1.38;;
41921;SDS011;27609;51.002;5.354;2023-08-08T13:47:16;3.28;;;1.20;;
41921;SDS011;27609;51.002;5.354;2023-08-08T13:49:42;2.72;;;1.23;;
41921;SDS011;27609;51.002;5.354;2023-08-08T13:52:08;3.55;;;1.50;;
41921;SDS011;27609;51.002;5.354;2023-08-08T13:54:34;3.08;;;1.38;;
41921;SDS011;27609;51.002;5.354;2023-08-08T13:57:00;2.63;;;1.40;;
41921;SDS011;27609;51.002;5.354;2023-08-08T13:59:26;2.15;;;1.60;;
41921;SDS011;27609;51.002;5.354;2023-08-08T14:01:51;4.30;;;1.48;;
41921;SDS011;27609;51.002;5.354;2023-08-08T14:04:17;5.05;;;1.35;;
41921;SDS011;27609;51.002;5.354;2023-08-08T14:06:43;3.08;;;1.48;;
41921;SDS011;27609;51.002;5.354;2023-08-08T14:09:10;3.00;;;1.23;;
41921;SDS011;27609;51.002;5.354;2023-08-08T14:11:35;2.80;;;1.60;;
41921;SDS011;27609;51.002;5.354;2023-08-08T14:14:01;1.95;;;1.35;;
41921;SDS011;27609;51.002;5.354;2023-08-08T14:16:27;5.60;;;2.00;;
41921;SDS011;27609;51.002;5.354;2023-08-08T14:18:52;7.00;;;3.55;;
41921;SDS011;27609;51.002;5.354;2023-08-08T14:21:18;9.25;;;4.55;;
41921;SDS011;27609;51.002;5.354;2023-08-08T14:23:44;2.80;;;1.83;;
41921;SDS011;27609;51.002;5.354;2023-08-08T14:26:10;3.08;;;1.50;;
41921;SDS011;27609;51.002;5.354;2023-08-08T14:28:36;6.60;;;1.40;;
41921;SDS011;27609;51.002;5.354;2023-08-08T14:31:01;6.05;;;1.48;;
41921;SDS011;27609;51.002;5.354;2023-08-08T14:33:30;2.70;;;0.80;;
41921;SDS011;27609;51.002;5.354;2023-08-08T14:35:56;2.88;;;1.10;;
41921;SDS011;27609;51.002;5.354;2023-08-08T14:38:25;1.55;;;1.05;;
41921;SDS011;27609;51.002;5.354;2023-08-08T14:40:51;1.63;;;0.90;;
41921;SDS011;27609;51.002;5.354;2023-08-08T14:43:18;2.47;;;1.35;;
41921;SDS011;27609;51.002;5.354;2023-08-08T14:45:43;3.08;;;1.90;;
41921;SDS011;27609;51.002;5.354;2023-08-08T14:48:09;2.58;;;1.30;;